Time;durP1;ratioP1;P1;durP2;ratioP2;P2;SDS_P1;SDS_P2;PMS_P1;PMS_P2;Temp;Humidity;BMP_temperature;BMP_pressure;BME280_temperature;BME280_humidity;BME280_pressure;Samples;Min_cycle;Max_cycle;Signal;HPM_P1;HPM_P2
2023/07/11 06:26:30;;;;;;;16.27;6.53;;;;;;;27.17;54.99;100547.88;5606096;31;113381;-59
2023/07/11 06:29:32;;;;;;;15.52;6.25;;;;;;;27.17;54.99;100547.88;5603785;31;34064;-60
2023/07/11 06:32:35;;;;;;;8.88;6.70;;;;;;;26.77;55.29;100563.44;5602448;31;33645;-59
2023/07/11 06:35:40;;;;;;;9.27;6.20;;;;;;;26.86;55.98;100554.84;5603695;31;34226;-60
2023/07/11 06:38:42;;;;;;;8.57;6.28;;;;;;;26.96;54.39;100562.34;5587988;31;34176;-60
2023/07/11 06:41:45;;;;;;;11.20;6.90;;;;;;;27.03;54.09;100548.59;5583816;31;33591;-60
2023/07/11 06:44:47;;;;;;;9.60;6.47;;;;;;;27.10;54.45;100556.09;5601993;31;34302;-60
2023/07/11 06:47:50;;;;;;;11.95;6.65;;;;;;;27.21;54.05;100556.16;5603395;31;33500;-61
2023/07/11 06:50:55;;;;;;;10.13;7.12;;;;;;;27.31;52.91;100547.91;5603600;31;33817;-61
2023/07/11 06:53:57;;;;;;;9.52;6.28;;;;;;;27.30;53.03;100554.59;5588982;31;33546;-60
2023/07/11 06:57:00;;;;;;;12.70;6.60;;;;;;;27.38;52.83;100552.66;5583646;31;34338;-60
2023/07/11 07:00:03;;;;;;;8.70;6.05;;;;;;;27.44;52.82;100545.59;5583616;31;33569;-61
2023/07/11 07:03:07;;;;;;;9.05;6.50;;;;;;;27.58;53.34;100555.81;5583790;32;33695;-61
2023/07/11 07:06:12;;;;;;;7.60;5.90;;;;;;;27.61;52.59;100555.03;5583184;32;33641;-61
2023/07/11 07:09:14;;;;;;;9.15;6.20;;;;;;;27.61;51.84;100553.06;5583627;32;34285;-61
2023/07/11 07:12:17;;;;;;;7.97;6.40;;;;;;;27.77;52.78;100558.22;5583573;31;33679;-61
2023/07/11 07:15:19;;;;;;;10.45;6.65;;;;;;;27.78;51.10;100559.00;5569696;32;33697;-61
2023/07/11 07:18:23;;;;;;;7.10;5.80;;;;;;;27.90;51.44;100561.38;5563869;32;33576;-61
2023/07/11 07:21:25;;;;;;;9.60;6.82;;;;;;;28.05;51.01;100564.94;5563933;32;33808;-61
2023/07/11 07:24:27;;;;;;;10.05;6.90;;;;;;;28.09;49.91;100560.19;5563508;32;33648;-61
2023/07/11 07:27:29;;;;;;;8.50;6.72;;;;;;;28.13;49.17;100566.50;5563903;32;33603;-61
2023/07/11 07:30:34;;;;;;;9.68;6.78;;;;;;;28.14;48.42;100557.03;5563862;32;33236;-61
2023/07/11 07:33:36;;;;;;;8.73;6.87;;;;;;;28.20;48.63;100565.69;5563740;32;33588;-61
2023/07/11 07:36:39;;;;;;;7.95;6.20;;;;;;;28.31;45.92;100564.50;5556092;32;33690;-61
2023/07/11 07:39:42;;;;;;;10.63;6.35;;;;;;;28.30;46.15;100560.16;5550884;32;33946;-61
2023/07/11 07:42:45;;;;;;;8.85;5.78;;;;;;;28.28;47.16;100561.75;5550805;32;34390;-61
2023/07/11 07:45:50;;;;;;;8.00;6.12;;;;;;;28.29;46.61;100555.06;5550466;32;33797;-61
2023/07/11 07:48:53;;;;;;;9.88;6.05;;;;;;;28.28;43.39;100557.03;5551001;32;33575;-61
2023/07/11 07:51:55;;;;;;;7.20;6.30;;;;;;;28.34;41.09;100546.34;5550648;32;33702;-61
2023/07/11 07:54:57;;;;;;;8.82;6.47;;;;;;;28.40;41.84;100558.59;5550617;32;34206;-61
2023/07/11 07:57:59;;;;;;;10.40;6.10;;;;;;;28.40;42.60;100555.06;5550634;32;33632;-60
2023/07/11 08:01:03;;;;;;;10.77;7.45;;;;;;;28.42;42.81;100547.19;5550795;32;34084;-60
2023/07/11 08:04:07;;;;;;;10.05;6.37;;;;;;;28.43;42.18;100560.56;5559798;32;33678;-59
2023/07/11 08:07:09;;;;;;;7.80;6.90;;;;;;;28.50;42.13;100554.22;5570188;32;33824;-59
2023/07/11 08:10:12;;;;;;;9.88;6.37;;;;;;;28.64;42.16;100554.19;5570063;32;34269;-59
2023/07/11 08:13:14;;;;;;;8.05;6.32;;;;;;;28.66;41.70;100560.09;5569739;31;33272;-59
2023/07/11 08:16:18;;;;;;;8.10;6.45;;;;;;;28.56;40.10;100563.69;5569688;32;33555;-59
2023/07/11 08:19:34;;;;;;;9.57;6.07;;;;;;;28.55;39.87;100567.62;5570022;32;33826;-60
2023/07/11 08:22:36;;;;;;;10.20;6.12;;;;;;;28.53;40.65;100565.25;5570084;32;33584;-59
2023/07/11 08:25:40;;;;;;;11.02;6.32;;;;;;;28.48;40.74;100573.94;5569638;32;33554;-59
2023/07/11 08:28:42;;;;;;;7.50;6.55;;;;;;;28.41;38.88;100571.22;5569762;32;33613;-59
2023/07/11 08:31:45;;;;;;;9.60;6.80;;;;;;;28.38;38.88;100574.72;5569795;32;33660;-59
2023/07/11 08:34:48;;;;;;;12.88;6.62;;;;;;;28.32;39.98;100581.81;5569870;32;34398;-60
2023/07/11 08:37:50;;;;;;;10.90;7.18;;;;;;;28.31;39.88;100578.28;5569718;32;33285;-59
2023/07/11 08:40:52;;;;;;;8.82;6.60;;;;;;;28.23;39.80;100582.22;5570005;32;33653;-59
2023/07/11 08:43:58;;;;;;;8.23;6.10;;;;;;;28.27;40.95;100580.25;5569599;32;33550;-59
2023/07/11 08:47:23;;;;;;;8.73;6.70;;;;;;;28.35;40.81;100575.53;5569165;32;34404;-59
2023/07/11 08:50:32;;;;;;;9.57;7.18;;;;;;;28.46;39.96;100583.78;5569575;32;34317;-59
2023/07/11 08:53:42;;;;;;;8.48;6.85;;;;;;;28.46;40.22;100587.34;5569521;32;34300;-59
2023/07/11 08:56:47;;;;;;;7.05;6.10;;;;;;;28.48;39.33;100576.72;5569582;32;33523;-59
2023/07/11 09:00:12;;;;;;;8.30;6.78;;;;;;;28.49;39.75;100585.75;5569435;32;33532;-59
2023/07/11 09:03:29;;;;;;;7.55;6.37;;;;;;;28.58;42.09;100588.91;5569349;32;33659;-59
2023/07/11 09:06:42;;;;;;;8.20;6.43;;;;;;;28.61;40.72;100598.31;5569445;32;33352;-58
2023/07/11 09:09:44;;;;;;;10.65;6.65;;;;;;;28.60;41.23;100591.25;5569481;32;33734;-60
2023/07/11 09:12:56;;;;;;;8.55;6.78;;;;;;;28.57;40.35;100595.56;5569549;32;34401;-59
2023/07/11 09:16:31;;;;;;;6.75;5.85;;;;;;;28.62;40.73;100591.66;5569232;32;34242;-60
2023/07/11 09:19:55;;;;;;;9.98;6.70;;;;;;;28.57;43.16;100595.56;5569365;32;33343;-60
2023/07/11 09:23:17;;;;;;;10.13;6.77;;;;;;;28.57;42.62;100588.09;5569487;32;33719;-59
2023/07/11 09:26:47;;;;;;;7.70;6.10;;;;;;;28.59;40.96;100586.91;5569330;32;34102;-60
2023/07/11 09:29:50;;;;;;;10.15;7.25;;;;;;;28.63;41.04;100588.47;5569186;32;34301;-60
2023/07/11 09:33:04;;;;;;;8.65;6.75;;;;;;;28.75;39.97;100593.56;5569537;32;33704;-60
2023/07/11 09:36:22;;;;;;;8.68;6.85;;;;;;;28.73;40.43;100589.63;5569245;32;33683;-60
2023/07/11 09:39:39;;;;;;;10.77;7.28;;;;;;;28.72;43.70;100590.81;5569399;32;34316;-60
2023/07/11 09:42:50;;;;;;;10.70;6.95;;;;;;;28.84;41.10;100587.62;5569312;32;34233;-60
2023/07/11 09:45:53;;;;;;;9.05;7.00;;;;;;;28.86;40.31;100589.97;5569045;32;34311;-59
2023/07/11 09:49:00;;;;;;;8.52;7.28;;;;;;;28.88;40.66;100590.38;5569180;32;34417;-60
2023/07/11 09:52:03;;;;;;;10.68;7.28;;;;;;;28.78;41.88;100575.44;5569177;32;34372;-59
2023/07/11 09:55:23;;;;;;;9.13;7.62;;;;;;;28.88;41.70;100569.09;5569208;32;33474;-60
2023/07/11 09:58:32;;;;;;;9.25;6.85;;;;;;;28.90;42.38;100574.97;5568664;32;33711;-59
2023/07/11 10:01:37;;;;;;;11.55;8.05;;;;;;;28.94;42.11;100572.19;5569194;32;33680;-60
2023/07/11 10:04:41;;;;;;;10.20;6.97;;;;;;;28.99;41.62;100575.34;5569026;32;34247;-60
2023/07/11 10:07:58;;;;;;;8.52;7.30;;;;;;;28.87;42.19;100575.00;5569157;32;34402;-60
2023/07/11 10:11:04;;;;;;;9.38;7.45;;;;;;;28.96;42.27;100569.84;5568969;32;33534;-60
2023/07/11 10:14:16;;;;;;;10.60;7.80;;;;;;;28.95;42.67;100560.00;5568937;32;33548;-60
2023/07/11 10:17:22;;;;;;;8.65;7.75;;;;;;;29.02;43.28;100573.78;5568843;32;34406;-60
2023/07/11 10:20:26;;;;;;;10.10;7.80;;;;;;;29.15;43.39;100563.06;5568729;32;34322;-62
2023/07/11 10:23:28;;;;;;;15.65;8.23;;;;;;;29.11;43.24;100571.38;5568780;32;33394;-62
2023/07/11 10:26:37;;;;;;;11.60;8.18;;;;;;;29.11;44.29;100573.34;5568222;32;33539;-62
2023/07/11 10:29:52;;;;;;;15.00;7.82;;;;;;;29.16;42.85;100579.22;5568433;32;33741;-62
2023/07/11 10:33:02;;;;;;;9.75;8.30;;;;;;;29.20;43.54;100581.97;5568435;32;33608;-62
2023/07/11 10:36:28;;;;;;;12.77;8.07;;;;;;;29.14;43.08;100569.75;5568370;32;33687;-62
2023/07/11 10:39:45;;;;;;;12.05;8.32;;;;;;;29.23;43.45;100565.38;5568379;32;34446;-62
2023/07/11 10:43:01;;;;;;;11.23;7.80;;;;;;;29.35;43.54;100566.13;5568323;32;33608;-62
2023/07/11 10:46:18;;;;;;;11.90;8.13;;;;;;;29.34;43.44;100567.28;5568001;32;33725;-62
2023/07/11 10:49:26;;;;;;;11.45;7.32;;;;;;;29.31;43.12;100555.09;5568285;32;33678;-62
2023/07/11 10:52:32;;;;;;;15.18;8.75;;;;;;;29.41;43.06;100551.47;5568135;32;34258;-62
2023/07/11 10:55:42;;;;;;;9.10;7.93;;;;;;;29.26;43.19;100564.56;5568076;32;34311;-62
2023/07/11 10:58:45;;;;;;;13.52;7.93;;;;;;;29.30;42.91;100555.47;5568122;32;33531;-61
2023/07/11 11:02:00;;;;;;;18.73;8.40;;;;;;;29.34;43.58;100543.25;5568117;32;34306;-61
2023/07/11 11:05:05;;;;;;;;;;;;;;;29.46;42.00;100558.53;5568363;32;34236;-61
2023/07/11 11:08:16;;;;;;;12.52;7.68;;;;;;;29.43;41.95;100546.31;5567888;32;34268;-61
2023/07/11 11:11:40;;;;;;;10.77;8.18;;;;;;;29.42;43.43;100555.81;5568856;32;33541;-61
2023/07/11 11:14:50;;;;;;;;;;;;;;;29.44;41.77;100545.16;5569772;32;34369;-62
2023/07/11 11:18:08;;;;;;;11.93;8.38;;;;;;;29.37;42.15;100547.97;5570587;32;33926;-61
2023/07/11 11:21:28;;;;;;;16.98;8.57;;;;;;;29.29;42.07;100527.09;5570505;32;33726;-62
2023/07/11 11:24:57;;;;;;;13.35;7.80;;;;;;;29.33;42.94;100536.13;5570382;32;34331;-62
2023/07/11 11:28:40;;;;;;;8.40;7.45;;;;;;;29.38;42.69;100524.66;5570309;32;34258;-62
2023/07/11 11:32:03;;;;;;;10.93;8.45;;;;;;;29.47;42.81;100519.47;5564903;31;33678;-60
2023/07/11 11:35:23;;;;;;;11.80;8.25;;;;;;;29.55;43.60;100520.22;5570599;32;33199;-59
2023/07/11 11:39:01;;;;;;;11.45;8.23;;;;;;;29.76;42.40;100515.72;5570428;32;33609;-60
2023/07/11 11:42:12;;;;;;;10.35;8.45;;;;;;;29.68;42.16;100513.03;5570247;32;33730;-59
2023/07/11 11:45:22;;;;;;;11.25;8.60;;;;;;;29.67;42.56;100510.69;5570491;32;33428;-59
2023/07/11 11:48:30;;;;;;;12.35;8.05;;;;;;;29.71;43.83;100512.22;5570317;32;33518;-59
2023/07/11 11:51:36;;;;;;;9.25;7.93;;;;;;;29.77;43.63;100509.81;5570293;32;34405;-60
2023/07/11 11:54:48;;;;;;;16.80;8.57;;;;;;;29.88;42.87;100513.25;5570340;32;33725;-60
2023/07/11 11:57:51;;;;;;;11.35;8.32;;;;;;;30.02;42.21;100511.53;5570051;32;33648;-60
2023/07/11 12:00:55;;;;;;;9.43;8.25;;;;;;;29.91;42.77;100512.44;5570294;32;34425;-60
2023/07/11 12:03:57;;;;;;;13.13;8.93;;;;;;;29.83;43.45;100512.88;5570114;32;34408;-59
2023/07/11 12:07:12;;;;;;;11.40;7.85;;;;;;;29.87;41.62;100514.44;5568952;32;34517;-59
2023/07/11 12:10:18;;;;;;;9.85;8.45;;;;;;;29.91;42.37;100514.41;5570068;32;33618;-59
2023/07/11 12:13:29;;;;;;;9.35;8.25;;;;;;;29.88;43.48;100504.94;5569956;32;34308;-60
2023/07/11 12:16:32;;;;;;;21.23;8.90;;;;;;;29.97;42.81;100510.00;5569982;32;34274;-59
2023/07/11 12:19:56;;;;;;;10.45;8.15;;;;;;;30.03;41.17;100518.63;5569917;32;33728;-60
2023/07/11 12:23:02;;;;;;;9.48;8.48;;;;;;;30.01;41.66;100513.53;5570062;32;33832;-59
2023/07/11 12:26:25;;;;;;;12.48;8.85;;;;;;;29.98;41.98;100508.03;5569786;32;33605;-59
2023/07/11 12:29:52;;;;;;;11.00;8.57;;;;;;;30.07;40.98;100511.87;5569835;32;33595;-60
2023/07/11 12:32:56;;;;;;;10.07;8.50;;;;;;;29.94;41.60;100500.56;5569994;32;34020;-59
2023/07/11 12:36:01;;;;;;;12.27;8.73;;;;;;;30.00;41.90;100505.63;5569741;32;33690;-60
2023/07/11 12:39:12;;;;;;;;;;;;;;;30.03;41.90;100499.28;5570260;32;34318;-59
2023/07/11 12:42:55;;;;;;;11.90;8.80;;;;;;;30.05;41.20;100489.38;5569908;32;33813;-61
2023/07/11 12:46:01;;;;;;;12.55;8.57;;;;;;;30.07;41.61;100491.75;5569631;32;34376;-61
2023/07/11 12:49:13;;;;;;;10.75;8.20;;;;;;;30.04;41.76;100493.34;5569847;32;33777;-61
2023/07/11 12:52:21;;;;;;;19.85;8.38;;;;;;;30.16;42.08;100478.22;5569617;32;33717;-61
2023/07/11 12:55:24;;;;;;;13.73;8.55;;;;;;;30.18;41.68;100470.28;5569758;32;33713;-61
2023/07/11 12:58:29;;;;;;;10.43;9.18;;;;;;;30.25;41.87;100492.34;5569678;32;33618;-60
2023/07/11 13:01:32;;;;;;;10.13;9.00;;;;;;;30.32;41.36;100481.22;5569603;32;33710;-61
2023/07/11 13:04:44;;;;;;;10.48;9.32;;;;;;;30.31;41.63;100473.34;5569661;32;33240;-61
2023/07/11 13:07:50;;;;;;;11.80;8.50;;;;;;;30.23;41.61;100469.06;5569423;32;33672;-61
2023/07/11 13:10:56;;;;;;;13.07;9.05;;;;;;;30.22;41.51;100476.59;5569642;32;33803;-61
2023/07/11 13:13:58;;;;;;;12.70;9.13;;;;;;;30.21;41.94;100469.50;5569431;32;34371;-61
2023/07/11 13:17:02;;;;;;;9.95;8.57;;;;;;;30.24;41.46;100470.66;5569649;32;34297;-61
2023/07/11 13:20:06;;;;;;;10.75;9.38;;;;;;;30.25;41.40;100466.69;5569565;32;33590;-61
2023/07/11 13:23:10;;;;;;;12.65;8.57;;;;;;;30.26;41.24;100466.28;5569649;32;34544;-61
2023/07/11 13:26:29;;;;;;;11.85;8.55;;;;;;;30.32;41.20;100458.31;5569246;32;33639;-61
2023/07/11 13:29:37;;;;;;;10.40;8.82;;;;;;;30.35;41.71;100461.03;5569517;32;33642;-61
2023/07/11 13:32:40;;;;;;;13.20;9.57;;;;;;;30.37;41.79;100461.41;5569378;32;33733;-61
2023/07/11 13:35:57;;;;;;;17.25;9.63;;;;;;;30.31;40.88;100476.88;5568653;32;34220;-61
2023/07/11 13:39:15;;;;;;;11.88;10.02;;;;;;;30.33;41.13;100457.91;5569377;32;33705;-61
2023/07/11 13:42:24;;;;;;;9.63;8.63;;;;;;;30.41;41.07;100453.06;5569341;32;33650;-61
2023/07/11 13:45:26;;;;;;;10.70;9.23;;;;;;;30.31;41.64;100456.75;5569286;32;33738;-61
2023/07/11 13:48:30;;;;;;;12.37;9.43;;;;;;;30.33;41.97;100446.84;5569148;32;33571;-60
2023/07/11 13:51:36;;;;;;;13.07;9.63;;;;;;;30.40;40.56;100451.50;5569254;32;34775;-62
2023/07/11 13:54:40;;;;;;;10.32;8.73;;;;;;;30.37;40.40;100444.81;5569409;32;33491;-62
2023/07/11 13:57:42;;;;;;;10.53;8.90;;;;;;;30.31;41.73;100448.47;5569108;32;33622;-62
2023/07/11 14:00:48;;;;;;;12.88;8.88;;;;;;;30.27;40.93;100436.66;5568901;32;33555;-62
2023/07/11 14:03:51;;;;;;;11.73;9.30;;;;;;;30.30;41.67;100442.16;5569126;32;34530;-62
2023/07/11 14:06:54;;;;;;;11.18;8.43;;;;;;;30.32;41.95;100444.47;5568789;32;33697;-62
2023/07/11 14:09:56;;;;;;;10.05;9.05;;;;;;;30.38;40.96;100451.91;5568981;32;33595;-62
2023/07/11 14:12:59;;;;;;;12.63;8.43;;;;;;;30.49;39.79;100442.69;5568933;32;33751;-61
2023/07/11 14:16:01;;;;;;;10.18;8.57;;;;;;;30.43;40.50;100437.63;5569010;32;33907;-61
2023/07/11 14:19:11;;;;;;;12.45;8.52;;;;;;;30.40;39.95;100440.44;5568736;32;33568;-62
2023/07/11 14:22:22;;;;;;;11.90;9.32;;;;;;;30.42;39.80;100432.50;5568731;32;33349;-62
2023/07/11 14:25:28;;;;;;;10.07;8.52;;;;;;;30.37;38.88;100444.81;5568361;32;33615;-62
2023/07/11 14:28:31;;;;;;;10.32;7.95;;;;;;;30.32;39.03;100444.47;5568450;32;33694;-62
2023/07/11 14:31:33;;;;;;;11.70;9.02;;;;;;;30.33;40.02;100435.78;5568327;32;34413;-62
2023/07/11 14:34:36;;;;;;;11.02;8.80;;;;;;;30.53;38.04;100429.59;5568511;32;34543;-62
2023/07/11 14:37:38;;;;;;;11.98;8.57;;;;;;;30.42;38.56;100436.03;5568333;32;33677;-62
2023/07/11 14:40:42;;;;;;;10.77;8.73;;;;;;;30.38;38.69;100427.00;5568450;32;33777;-62
2023/07/11 14:43:44;;;;;;;12.15;9.60;;;;;;;30.38;39.09;100424.25;5568167;32;33516;-62
2023/07/11 14:46:47;;;;;;;11.82;9.27;;;;;;;30.38;38.37;100426.25;5569385;32;33557;-62
2023/07/11 14:49:50;;;;;;;9.95;8.85;;;;;;;30.38;37.95;100421.47;5570719;32;34395;-62
2023/07/11 14:52:53;;;;;;;10.68;9.07;;;;;;;30.38;39.15;100429.78;5569640;32;34342;-62
2023/07/11 14:55:56;;;;;;;12.60;9.18;;;;;;;30.43;38.75;100434.06;5570666;32;34365;-62
2023/07/11 14:59:04;;;;;;;12.63;8.50;;;;;;;30.33;38.61;100421.97;5570836;32;33730;-62
2023/07/11 15:02:39;;;;;;;14.70;8.68;;;;;;;30.32;38.71;100423.13;5569731;32;34331;-60
2023/07/11 15:05:43;;;;;;;15.65;9.38;;;;;;;30.30;39.19;100408.97;5544237;31;34389;-59
2023/07/11 15:09:05;;;;;;;11.25;9.38;;;;;;;30.29;39.01;100410.13;5570392;32;33737;-60
2023/07/11 15:12:13;;;;;;;12.95;9.85;;;;;;;30.25;39.74;100403.88;5570668;32;33717;-60
2023/07/11 15:15:36;;;;;;;10.93;9.45;;;;;;;30.25;39.05;100398.34;5570414;32;33578;-60
2023/07/11 15:18:38;;;;;;;14.27;11.15;;;;;;;30.16;39.35;100398.81;5570656;32;33655;-60
2023/07/11 15:21:41;;;;;;;11.88;9.85;;;;;;;30.31;38.96;100391.16;5570592;32;33658;-60
2023/07/11 15:24:44;;;;;;;10.90;9.68;;;;;;;30.37;39.76;100394.25;5570417;32;34053;-60
2023/07/11 15:27:46;;;;;;;14.38;10.10;;;;;;;30.31;39.07;100401.44;5570293;32;33773;-60
2023/07/11 15:30:51;;;;;;;13.38;10.43;;;;;;;30.32;39.10;100401.00;5570466;32;33611;-60
2023/07/11 15:33:53;;;;;;;11.57;10.38;;;;;;;30.23;38.98;100395.19;5570360;32;33664;-60
2023/07/11 15:36:56;;;;;;;11.50;10.20;;;;;;;30.20;39.38;100401.59;5570538;32;34235;-60
2023/07/11 15:39:58;;;;;;;14.57;10.65;;;;;;;30.26;39.22;100397.13;5570271;32;33823;-60
2023/07/11 15:43:00;;;;;;;11.95;10.25;;;;;;;30.29;39.01;100399.06;5570236;32;34418;-60
2023/07/11 15:46:03;;;;;;;11.40;9.98;;;;;;;30.22;39.29;100392.87;5570101;32;33691;-60
2023/07/11 15:49:18;;;;;;;11.77;10.30;;;;;;;30.19;39.60;100392.47;5570148;32;33757;-60
2023/07/11 15:52:21;;;;;;;;;;;;;;;30.28;39.21;100389.22;5570533;32;33598;-60
2023/07/11 15:55:27;;;;;;;11.85;10.45;;;;;;;30.25;39.78;100398.34;5570284;32;33898;-59
2023/07/11 15:58:29;;;;;;;12.60;10.23;;;;;;;30.38;39.78;100402.13;5569701;32;34366;-60
2023/07/11 16:01:31;;;;;;;13.32;10.73;;;;;;;30.30;39.90;100389.59;5570256;32;34332;-59
2023/07/11 16:04:34;;;;;;;12.00;9.95;;;;;;;30.23;41.07;100391.66;5570250;32;33703;-59
2023/07/11 16:07:36;;;;;;;11.52;10.32;;;;;;;30.27;40.84;100393.19;5569892;32;33719;-60
2023/07/11 16:10:39;;;;;;;12.43;10.38;;;;;;;30.28;40.75;100400.28;5570010;32;33697;-62
2023/07/11 16:13:43;;;;;;;16.65;10.65;;;;;;;30.25;39.68;100395.59;5569842;32;33378;-59
2023/07/11 16:16:47;;;;;;;13.30;10.02;;;;;;;30.21;40.55;100389.31;5570087;32;33708;-59
2023/07/11 16:19:50;;;;;;;12.43;9.80;;;;;;;30.19;40.86;100388.94;5569856;32;33887;-59
2023/07/11 16:22:53;;;;;;;13.30;10.18;;;;;;;30.12;41.21;100395.31;5569901;32;34317;-59
2023/07/11 16:25:56;;;;;;;11.35;9.43;;;;;;;30.20;40.75;100385.00;5569795;32;33345;-59
2023/07/11 16:28:59;;;;;;;14.13;10.40;;;;;;;30.19;40.58;100386.97;5569907;32;33682;-59
2023/07/11 16:32:02;;;;;;;13.50;10.23;;;;;;;30.18;40.50;100373.53;5569669;32;33906;-59
2023/07/11 16:35:10;;;;;;;12.40;9.57;;;;;;;30.07;40.87;100387.50;5570045;32;33618;-59
2023/07/11 16:38:22;;;;;;;14.25;9.93;;;;;;;30.03;41.97;100383.19;5569672;32;33644;-59
2023/07/11 16:41:24;;;;;;;13.38;10.20;;;;;;;29.96;41.27;100387.59;5569787;32;33584;-59
2023/07/11 16:44:27;;;;;;;12.90;10.00;;;;;;;30.02;40.58;100389.91;5569791;32;33599;-59
2023/07/11 16:47:30;;;;;;;13.10;10.00;;;;;;;30.01;41.50;100389.13;5569590;32;33579;-59
2023/07/11 16:50:33;;;;;;;11.02;9.90;;;;;;;29.94;41.76;100394.75;5569701;32;33255;-59
2023/07/11 16:53:36;;;;;;;12.90;10.35;;;;;;;29.92;41.41;100397.91;5569603;32;34442;-59
2023/07/11 16:56:38;;;;;;;12.95;9.25;;;;;;;29.97;41.17;100399.47;5569753;32;34418;-59
2023/07/11 16:59:42;;;;;;;11.75;9.70;;;;;;;29.91;41.22;100401.88;5569663;32;34307;-59
2023/07/11 17:02:45;;;;;;;13.20;10.15;;;;;;;29.89;41.02;100411.78;5569588;32;34412;-59
2023/07/11 17:05:49;;;;;;;10.50;9.40;;;;;;;29.86;40.92;100409.84;5569446;32;33741;-59
2023/07/11 17:08:52;;;;;;;14.70;9.68;;;;;;;29.83;40.97;100422.47;5568715;32;34366;-59
2023/07/11 17:11:54;;;;;;;15.45;10.38;;;;;;;29.81;40.24;100416.59;5569439;32;33673;-59
2023/07/11 17:14:58;;;;;;;11.20;9.20;;;;;;;29.78;40.24;100414.66;5569471;32;33668;-59
2023/07/11 17:18:00;;;;;;;12.80;10.02;;;;;;;29.84;40.28;100410.25;5569436;32;33520;-59
2023/07/11 17:21:03;;;;;;;10.95;9.45;;;;;;;29.74;40.40;100408.38;5569583;32;33601;-61
2023/07/11 17:24:26;;;;;;;11.73;9.68;;;;;;;29.68;40.73;100416.34;5569234;32;34344;-62
2023/07/11 17:27:30;;;;;;;12.30;9.98;;;;;;;29.65;40.80;100414.38;5569296;32;33870;-62
2023/07/11 17:30:32;;;;;;;11.43;9.57;;;;;;;29.69;40.89;100420.66;5569288;32;33311;-62
2023/07/11 17:33:35;;;;;;;13.85;9.82;;;;;;;29.61;41.74;100426.69;5569198;32;34452;-62
2023/07/11 17:36:40;;;;;;;12.30;9.55;;;;;;;29.61;41.26;100423.91;5569282;32;33601;-62
2023/07/11 17:39:42;;;;;;;12.95;9.55;;;;;;;29.60;41.37;100420.34;5569284;32;33700;-62
2023/07/11 17:42:45;;;;;;;15.25;9.50;;;;;;;29.52;41.78;100424.34;5569213;32;33720;-62
2023/07/11 17:45:49;;;;;;;11.70;9.77;;;;;;;29.48;42.43;100416.09;5569216;32;33852;-62
2023/07/11 17:48:54;;;;;;;12.18;9.00;;;;;;;29.44;42.85;100426.41;5569182;32;34405;-62
2023/07/11 17:51:58;;;;;;;16.62;9.60;;;;;;;29.40;42.95;100428.38;5569070;32;34350;-62
2023/07/11 17:55:01;;;;;;;11.70;9.63;;;;;;;29.40;42.57;100428.38;5569137;32;33711;-62
2023/07/11 17:58:23;;;;;;;11.63;9.90;;;;;;;29.34;43.19;100424.50;5568963;32;34263;-62
2023/07/11 18:01:26;;;;;;;10.88;9.45;;;;;;;29.27;43.30;100427.31;5569050;32;34613;-61
2023/07/11 18:04:29;;;;;;;14.87;10.32;;;;;;;29.17;42.74;100436.47;5568956;32;34360;-62
2023/07/11 18:07:35;;;;;;;13.85;9.88;;;;;;;29.17;42.57;100431.75;5568938;32;34394;-62
2023/07/11 18:10:38;;;;;;;11.20;9.90;;;;;;;29.26;42.46;100434.03;5568999;32;34338;-62
2023/07/11 18:13:41;;;;;;;12.40;9.52;;;;;;;29.18;42.64;100432.53;5568643;32;34323;-61
2023/07/11 18:16:44;;;;;;;13.70;10.30;;;;;;;29.13;43.86;100433.72;5568704;32;33800;-62
2023/07/11 18:19:47;;;;;;;12.60;9.82;;;;;;;29.07;43.37;100429.03;5568424;32;33694;-62
2023/07/11 18:22:50;;;;;;;11.65;10.02;;;;;;;29.04;43.28;100427.91;5568602;32;33595;-62
2023/07/11 18:25:53;;;;;;;13.82;10.07;;;;;;;28.99;44.15;100431.06;5568095;32;34442;-61
2023/07/11 18:28:56;;;;;;;12.23;9.88;;;;;;;28.92;44.55;100422.81;5568475;32;33454;-62
2023/07/11 18:31:58;;;;;;;15.90;10.73;;;;;;;28.85;44.86;100426.41;5568660;32;34409;-60
2023/07/11 18:35:00;;;;;;;13.50;10.10;;;;;;;28.74;44.66;100423.72;5568489;32;33754;-60
2023/07/11 18:38:19;;;;;;;12.52;9.98;;;;;;;28.79;43.91;100423.28;5568384;32;33754;-60
2023/07/11 18:41:22;;;;;;;16.90;10.85;;;;;;;28.71;44.38;100412.69;5568345;32;34062;-60
2023/07/11 18:44:24;;;;;;;11.95;10.43;;;;;;;28.66;44.21;100408.38;5568198;32;34382;-59
2023/07/11 18:47:37;;;;;;;12.48;10.75;;;;;;;28.63;43.60;100409.19;5568268;32;34339;-60
2023/07/11 18:50:40;;;;;;;11.35;9.93;;;;;;;28.56;44.20;100404.50;5568208;32;33883;-59
2023/07/11 18:53:43;;;;;;;13.25;10.32;;;;;;;28.50;44.65;100411.62;5568136;32;34517;-60
2023/07/11 18:56:45;;;;;;;12.88;10.02;;;;;;;28.46;44.67;100405.34;5567870;32;33808;-60
2023/07/11 18:59:48;;;;;;;14.00;10.32;;;;;;;28.36;44.91;100408.91;5567975;32;34432;-60
2023/07/11 19:02:50;;;;;;;14.68;10.50;;;;;;;28.29;45.79;100420.75;5568026;32;33684;-60
2023/07/11 19:05:53;;;;;;;13.93;9.80;;;;;;;28.30;45.01;100414.03;5567928;32;33739;-60
2023/07/11 19:08:55;;;;;;;12.02;9.55;;;;;;;28.26;45.93;100412.50;5567704;32;34518;-60
2023/07/11 19:11:58;;;;;;;13.00;9.80;;;;;;;28.19;45.79;100415.28;5567589;32;34116;-60
2023/07/11 19:15:10;;;;;;;12.63;10.07;;;;;;;28.15;45.22;100423.56;5567678;32;33683;-59
2023/07/11 19:18:16;;;;;;;14.02;10.32;;;;;;;28.13;45.73;100422.41;5567590;32;33436;-59
2023/07/11 19:21:19;;;;;;;16.02;10.95;;;;;;;28.03;45.95;100415.72;5567585;32;33711;-60
2023/07/11 19:24:21;;;;;;;13.98;10.60;;;;;;;27.96;46.25;100422.03;5567370;32;33675;-60
2023/07/11 19:27:24;;;;;;;13.05;10.30;;;;;;;27.90;46.45;100431.91;5567526;32;33789;-59
2023/07/11 19:30:28;;;;;;;13.55;10.90;;;;;;;27.93;46.61;100422.06;5567326;32;33599;-60
2023/07/11 19:33:31;;;;;;;16.58;10.45;;;;;;;27.82;46.98;100427.59;5569565;32;34250;-60
2023/07/11 19:36:33;;;;;;;12.35;10.10;;;;;;;27.81;46.45;100432.28;5569243;32;34000;-60
2023/07/11 19:39:35;;;;;;;12.65;10.55;;;;;;;27.81;46.91;100429.53;5570376;32;33388;-60
2023/07/11 19:42:38;;;;;;;14.80;10.77;;;;;;;27.74;47.03;100435.03;5570423;32;34436;-60
2023/07/11 19:45:43;;;;;;;12.35;10.30;;;;;;;27.72;47.15;100431.91;5570244;32;34351;-61
2023/07/11 19:48:46;;;;;;;19.33;11.27;;;;;;;27.68;47.02;100433.09;5570133;32;34274;-60
2023/07/11 19:51:48;;;;;;;12.65;10.60;;;;;;;27.72;47.46;100436.63;5570136;32;33758;-62
2023/07/11 19:54:50;;;;;;;14.35;10.40;;;;;;;27.66;49.30;100429.94;5570194;32;33574;-61
2023/07/11 19:57:54;;;;;;;14.15;11.02;;;;;;;27.61;48.36;100422.84;5570060;32;34389;-61
2023/07/11 20:00:59;;;;;;;13.40;11.18;;;;;;;27.57;48.27;100431.13;5570138;32;33814;-61
2023/07/11 20:04:01;;;;;;;16.25;11.57;;;;;;;27.44;48.72;100429.97;5570163;32;33759;-61
2023/07/11 20:15:59;;;;;;;16.62;11.25;;;;;;;27.29;50.29;100434.69;5569801;32;34291;-61
2023/07/11 20:19:02;;;;;;;16.67;11.00;;;;;;;27.26;50.25;100440.19;5569854;32;33719;-61
2023/07/11 20:22:11;;;;;;;13.62;10.55;;;;;;;27.15;50.36;100442.91;5569867;32;33752;-61
2023/07/11 20:25:16;;;;;;;17.37;10.38;;;;;;;27.06;50.98;100448.78;5569785;32;33758;-61
2023/07/11 20:28:20;;;;;;;12.55;10.60;;;;;;;27.02;50.68;100439.75;5569901;32;33729;-61
2023/07/11 20:31:23;;;;;;;12.25;10.60;;;;;;;27.07;51.26;100452.31;5569683;32;33682;-61
2023/07/11 20:34:26;;;;;;;19.35;10.35;;;;;;;27.02;51.25;100452.69;5569802;32;33592;-61
2023/07/11 20:37:28;;;;;;;12.75;10.88;;;;;;;26.89;52.01;100447.56;5569648;32;34347;-61
2023/07/11 20:40:34;;;;;;;17.87;11.43;;;;;;;26.88;51.88;100442.44;5569720;32;34348;-61
2023/07/11 20:43:36;;;;;;;14.87;11.20;;;;;;;26.87;52.54;100440.87;5569675;32;34428;-60
2023/07/11 20:46:38;;;;;;;13.35;11.80;;;;;;;26.89;52.54;100444.81;5569931;32;34319;-61
2023/07/11 20:49:41;;;;;;;12.68;10.45;;;;;;;26.77;53.48;100444.41;5569381;32;33300;-60
2023/07/11 20:52:46;;;;;;;13.70;10.43;;;;;;;26.73;55.56;100438.09;5569627;32;34424;-60